Time,TemperatureF,DewpointF,PressureIn,WindDirection,WindDirectionDegrees,WindSpeedMPH,WindSpeedGustMPH,Humidity,HourlyPrecipIn,Conditions,Clouds,dailyrainin,SoftwareType,DateUTC
2013-01-17 00:04:00,71.2,70.0,29.91,SSE,157,6.3,-999.0,96,-99.99,,,0.00,Acu-Link.com,2013-01-17 05:04:00,
2013-01-17 00:20:00,70.2,68.1,29.90,South,180,4.7,-999.0,93,-99.99,,,0.00,Acu-Link.com,2013-01-17 05:20:00,
2013-01-17 00:44:00,69.8,67.7,29.90,ESE,112,3.7,-999.0,93,-99.99,,,0.01,Acu-Link.com,2013-01-17 05:44:00,
2013-01-17 01:12:00,66.9,66.0,29.90,ESE,112,6.3,-999.0,97,-99.99,,,0.02,Acu-Link.com,2013-01-17 06:12:00,
2013-01-17 01:28:00,67.5,66.6,29.90,ESE,112,2.2,-999.0,97,-99.99,,,0.04,Acu-Link.com,2013-01-17 06:28:00,
2013-01-17 01:43:00,67.5,66.9,29.91,SSE,157,4.2,-999.0,98,-99.99,,,0.04,Acu-Link.com,2013-01-17 06:43:00,
2013-01-17 01:58:00,67.5,66.9,29.90,ESE,112,2.7,-999.0,98,-99.99,,,0.04,Acu-Link.com,2013-01-17 06:58:00,
2013-01-17 02:13:00,67.6,67.3,29.90,ESE,112,4.7,-999.0,99,-99.99,,,0.04,Acu-Link.com,2013-01-17 07:13:00,
2013-01-17 02:29:00,68.0,67.4,29.90,SE,135,0.0,-999.0,98,-99.99,,,0.04,Acu-Link.com,2013-01-17 07:29:00,
2013-01-17 02:44:00,68.0,67.7,29.90,ESE,112,3.2,-999.0,99,-99.99,,,0.04,Acu-Link.com,2013-01-17 07:44:00,
2013-01-17 02:59:00,68.0,67.7,29.89,ESE,112,2.7,-999.0,99,-99.99,,,0.04,Acu-Link.com,2013-01-17 07:59:00,
2013-01-17 03:14:00,68.0,67.7,29.90,ESE,112,2.7,-999.0,99,-99.99,,,0.04,Acu-Link.com,2013-01-17 08:14:00,
2013-01-17 03:29:00,68.0,67.7,29.90,ESE,112,4.7,-999.0,99,-99.99,,,0.04,Acu-Link.com,2013-01-17 08:29:00,
2013-01-17 04:12:00,68.0,67.7,29.90,ESE,112,2.7,-999.0,99,-99.99,,,0.04,Acu-Link.com,2013-01-17 09:12:00,
2013-01-17 04:27:00,68.2,67.9,29.88,East,90,3.7,-999.0,99,-99.99,,,0.04,Acu-Link.com,2013-01-17 09:27:00,
2013-01-17 04:42:00,68.4,68.1,29.88,ESE,112,2.7,-999.0,99,-99.99,,,0.04,Acu-Link.com,2013-01-17 09:42:00,
2013-01-17 04:57:00,68.5,68.2,29.88,ESE,112,3.2,-999.0,99,-99.99,,,0.04,Acu-Link.com,2013-01-17 09:57:00,
2013-01-17 05:13:00,68.7,68.4,29.87,ESE,112,2.2,-999.0,99,-99.99,,,0.04,Acu-Link.com,2013-01-17 10:13:00,
2013-01-17 05:28:00,68.9,68.6,29.88,ESE,112,4.7,-999.0,99,-99.99,,,0.04,Acu-Link.com,2013-01-17 10:28:00,
2013-01-17 05:43:00,68.9,68.6,29.88,SE,135,1.1,-999.0,99,-99.99,,,0.04,Acu-Link.com,2013-01-17 10:43:00,
2013-01-17 05:58:00,69.1,68.8,29.89,SE,135,2.7,-999.0,99,-99.99,,,0.04,Acu-Link.com,2013-01-17 10:58:00,
2013-01-17 06:13:00,69.1,68.8,29.89,ESE,112,1.7,-999.0,99,-99.99,,,0.04,Acu-Link.com,2013-01-17 11:13:00,
2013-01-17 06:28:00,69.3,69.0,29.90,ESE,112,0.0,-999.0,99,-99.99,,,0.04,Acu-Link.com,2013-01-17 11:28:00,
2013-01-17 06:43:00,69.3,69.0,29.90,ESE,112,0.0,-999.0,99,-99.99,,,0.04,Acu-Link.com,2013-01-17 11:43:00,
2013-01-17 07:00:00,69.1,68.8,29.90,ESE,112,1.7,-999.0,99,-99.99,,,0.04,Acu-Link.com,2013-01-17 12:00:00,
2013-01-17 07:15:00,68.7,68.4,29.90,ESE,112,0.0,-999.0,99,-99.99,,,0.04,Acu-Link.com,2013-01-17 12:15:00,
2013-01-17 07:30:00,68.5,68.2,29.91,ESE,112,1.7,-999.0,99,-99.99,,,0.04,Acu-Link.com,2013-01-17 12:30:00,
2013-01-17 07:45:00,68.5,68.2,29.92,ESE,112,0.0,-999.0,99,-99.99,,,0.04,Acu-Link.com,2013-01-17 12:45:00,
2013-01-17 08:01:00,68.5,68.2,29.92,ESE,112,0.0,-999.0,99,-99.99,,,0.04,Acu-Link.com,2013-01-17 13:01:00,
2013-01-17 08:16:00,70.0,69.7,29.92,ESE,112,0.0,-999.0,99,-99.99,,,0.04,Acu-Link.com,2013-01-17 13:16:00,
2013-01-17 08:31:00,71.4,71.1,29.93,SSW,202,1.7,-999.0,99,-99.99,,,0.04,Acu-Link.com,2013-01-17 13:31:00,
2013-01-17 08:46:00,71.4,70.8,29.93,South,180,0.0,-999.0,98,-99.99,,,0.04,Acu-Link.com,2013-01-17 13:46:00,
2013-01-17 09:01:00,73.4,70.9,29.93,SSW,202,0.0,-999.0,92,-99.99,,,0.04,Acu-Link.com,2013-01-17 14:01:00,
2013-01-17 09:16:00,75.0,71.2,29.94,SSW,202,2.2,-999.0,88,-99.99,,,0.04,Acu-Link.com,2013-01-17 14:16:00,
2013-01-17 09:31:00,76.1,71.9,29.95,SSW,202,4.2,-999.0,87,-99.99,,,0.04,Acu-Link.com,2013-01-17 14:31:00,
2013-01-17 09:46:00,76.8,71.2,29.95,SW,225,6.3,-999.0,83,-99.99,,,0.04,Acu-Link.com,2013-01-17 14:46:00,
2013-01-17 10:01:00,76.5,70.9,29.94,SSW,202,6.3,-999.0,83,-99.99,,,0.04,Acu-Link.com,2013-01-17 15:01:00,
2013-01-17 10:17:00,78.3,70.9,29.94,South,180,7.3,-999.0,78,-99.99,,,0.04,Acu-Link.com,2013-01-17 15:17:00,
2013-01-17 10:32:00,77.7,69.5,29.93,South,180,6.8,-999.0,76,-99.99,,,0.04,Acu-Link.com,2013-01-17 15:32:00,
2013-01-17 10:47:00,78.1,69.5,29.93,SSW,202,7.8,-999.0,75,-99.99,,,0.04,Acu-Link.com,2013-01-17 15:47:00,
2013-01-17 11:02:00,79.5,69.7,29.92,SE,135,9.4,-999.0,72,-99.99,,,0.04,Acu-Link.com,2013-01-17 16:02:00,
2013-01-17 11:17:00,79.9,68.8,29.91,SSW,202,5.8,-999.0,69,-99.99,,,0.04,Acu-Link.com,2013-01-17 16:17:00,
2013-01-17 11:32:00,81.0,69.4,29.90,WSW,247,6.3,-999.0,68,-99.99,,,0.04,Acu-Link.com,2013-01-17 16:32:00,
2013-01-17 11:47:00,80.2,69.1,29.90,SSE,157,5.8,-999.0,69,-99.99,,,0.04,Acu-Link.com,2013-01-17 16:47:00,
2013-01-17 12:02:00,80.4,69.3,29.89,South,180,2.2,-999.0,69,-99.99,,,0.04,Acu-Link.com,2013-01-17 17:02:00,
2013-01-17 12:18:00,79.9,69.2,29.88,SSW,202,8.9,-999.0,70,-99.99,,,0.04,Acu-Link.com,2013-01-17 17:18:00,
2013-01-17 12:33:00,79.9,69.2,29.87,SSE,157,3.7,-999.0,70,-99.99,,,0.04,Acu-Link.com,2013-01-17 17:33:00,
2013-01-17 12:48:00,79.7,69.0,29.86,SW,225,6.3,-999.0,70,-99.99,,,0.04,Acu-Link.com,2013-01-17 17:48:00,
2013-01-17 13:03:00,80.4,68.8,29.85,SSW,202,4.2,-999.0,68,-99.99,,,0.04,Acu-Link.com,2013-01-17 18:03:00,
2013-01-17 13:19:00,78.6,70.0,29.85,SE,135,6.8,-999.0,75,-99.99,,,0.04,Acu-Link.com,2013-01-17 18:19:00,
2013-01-17 13:34:00,77.9,69.7,29.84,SSE,157,4.7,-999.0,76,-99.99,,,0.04,Acu-Link.com,2013-01-17 18:34:00,
2013-01-17 13:49:00,77.2,69.4,29.83,SSE,157,5.8,-999.0,77,-99.99,,,0.04,Acu-Link.com,2013-01-17 18:49:00,
2013-01-17 14:04:00,77.0,69.2,29.84,SW,225,5.8,-999.0,77,-99.99,,,0.04,Acu-Link.com,2013-01-17 19:04:00,
2013-01-17 14:20:00,76.8,67.9,29.84,SSW,202,3.2,-999.0,74,-99.99,,,0.04,Acu-Link.com,2013-01-17 19:20:00,
2013-01-17 14:35:00,76.5,68.0,29.84,SW,225,8.9,-999.0,75,-99.99,,,0.04,Acu-Link.com,2013-01-17 19:35:00,
2013-01-17 14:50:00,76.6,67.3,29.84,WSW,247,7.8,-999.0,73,-99.99,,,0.04,Acu-Link.com,2013-01-17 19:50:00,
2013-01-17 15:05:00,77.7,67.1,29.83,SSW,202,9.4,-999.0,70,-99.99,,,0.04,Acu-Link.com,2013-01-17 20:05:00,
2013-01-17 15:20:00,77.2,67.5,29.83,SSW,202,6.3,-999.0,72,-99.99,,,0.04,Acu-Link.com,2013-01-17 20:20:00,
2013-01-17 15:35:00,76.8,67.5,29.83,WSW,247,6.8,-999.0,73,-99.99,,,0.04,Acu-Link.com,2013-01-17 20:35:00,
2013-01-17 15:50:00,76.6,67.7,29.83,South,180,5.8,-999.0,74,-99.99,,,0.04,Acu-Link.com,2013-01-17 20:50:00,
2013-01-17 16:05:00,77.7,67.9,29.83,SSW,202,7.3,-999.0,72,-99.99,,,0.04,Acu-Link.com,2013-01-17 21:05:00,
2013-01-17 16:21:00,77.9,67.7,29.83,SSE,157,4.7,-999.0,71,-99.99,,,0.04,Acu-Link.com,2013-01-17 21:21:00,
2013-01-17 16:36:00,77.2,67.5,29.84,SSW,202,6.3,-999.0,72,-99.99,,,0.04,Acu-Link.com,2013-01-17 21:36:00,
2013-01-17 16:51:00,77.0,67.3,29.84,SW,225,3.2,-999.0,72,-99.99,,,0.04,Acu-Link.com,2013-01-17 21:51:00,
2013-01-17 17:06:00,76.8,67.9,29.84,SSW,202,5.8,-999.0,74,-99.99,,,0.04,Acu-Link.com,2013-01-17 22:06:00,
2013-01-17 17:21:00,76.6,67.7,29.84,SW,225,5.8,-999.0,74,-99.99,,,0.04,Acu-Link.com,2013-01-17 22:21:00,
2013-01-17 17:36:00,76.3,67.8,29.84,SSW,202,4.2,-999.0,75,-99.99,,,0.04,Acu-Link.com,2013-01-17 22:36:00,
2013-01-17 17:51:00,75.9,67.8,29.84,SW,225,3.2,-999.0,76,-99.99,,,0.04,Acu-Link.com,2013-01-17 22:51:00,
2013-01-17 18:07:00,75.4,67.7,29.85,SSW,202,4.7,-999.0,77,-99.99,,,0.04,Acu-Link.com,2013-01-17 23:07:00,
2013-01-17 18:22:00,72.3,66.1,29.87,West,270,14.0,-999.0,81,-99.99,,,0.04,Acu-Link.com,2013-01-17 23:22:00,
2013-01-17 18:37:00,69.6,64.5,29.88,NW,315,11.9,-999.0,84,-99.99,,,0.04,Acu-Link.com,2013-01-17 23:37:00,
2013-01-17 18:52:00,68.5,63.5,29.89,West,270,19.7,-999.0,84,-99.99,,,0.04,Acu-Link.com,2013-01-17 23:52:00,
2013-01-17 19:07:00,66.0,62.3,29.91,NW,315,14.0,-999.0,88,-99.99,,,0.04,Acu-Link.com,2013-01-18 00:07:00,
2013-01-17 19:22:00,64.9,61.6,29.92,NNW,337,5.8,-999.0,89,-99.99,,,0.04,Acu-Link.com,2013-01-18 00:22:00,
2013-01-17 19:37:00,65.1,60.5,29.92,West,270,8.3,-999.0,85,-99.99,,,0.04,Acu-Link.com,2013-01-18 00:37:00,
2013-01-17 19:53:00,64.2,59.6,29.93,West,270,11.9,-999.0,85,-99.99,,,0.04,Acu-Link.com,2013-01-18 00:53:00,
2013-01-17 20:08:00,63.7,58.8,29.94,WSW,247,7.8,-999.0,84,-99.99,,,0.04,Acu-Link.com,2013-01-18 01:08:00,
2013-01-17 20:23:00,63.1,57.2,29.94,WSW,247,13.5,-999.0,81,-99.99,,,0.04,Acu-Link.com,2013-01-18 01:23:00,
2013-01-17 20:39:00,63.0,57.1,29.94,SW,225,5.3,-999.0,81,-99.99,,,0.04,Acu-Link.com,2013-01-18 01:39:00,
2013-01-17 20:54:00,62.8,57.2,29.94,West,270,7.8,-999.0,82,-99.99,,,0.04,Acu-Link.com,2013-01-18 01:54:00,
2013-01-17 21:09:00,62.4,57.2,29.94,NNW,337,7.3,-999.0,83,-99.99,,,0.04,Acu-Link.com,2013-01-18 02:09:00,
2013-01-17 21:24:00,62.1,57.2,29.94,West,270,4.2,-999.0,84,-99.99,,,0.04,Acu-Link.com,2013-01-18 02:24:00,
2013-01-17 21:39:00,61.9,57.3,29.94,West,270,5.3,-999.0,85,-99.99,,,0.04,Acu-Link.com,2013-01-18 02:39:00,
2013-01-17 21:54:00,61.7,57.1,29.94,NW,315,5.3,-999.0,85,-99.99,,,0.04,Acu-Link.com,2013-01-18 02:54:00,
2013-01-17 22:09:00,61.5,56.9,29.95,WSW,247,6.8,-999.0,85,-99.99,,,0.04,Acu-Link.com,2013-01-18 03:09:00,
2013-01-17 22:24:00,61.5,56.6,29.95,WSW,247,5.8,-999.0,84,-99.99,,,0.04,Acu-Link.com,2013-01-18 03:24:00,
2013-01-17 22:40:00,61.5,56.3,29.94,West,270,8.9,-999.0,83,-99.99,,,0.04,Acu-Link.com,2013-01-18 03:40:00,
2013-01-17 22:55:00,61.3,55.8,29.95,WSW,247,6.8,-999.0,82,-99.99,,,0.04,Acu-Link.com,2013-01-18 03:55:00,
2013-01-17 23:10:00,61.2,55.7,29.94,West,270,4.7,-999.0,82,-99.99,,,0.04,Acu-Link.com,2013-01-18 04:10:00,
2013-01-17 23:25:00,60.8,54.9,29.95,West,270,5.8,-999.0,81,-99.99,,,0.04,Acu-Link.com,2013-01-18 04:25:00,
2013-01-17 23:40:00,60.6,54.0,29.94,West,270,7.8,-999.0,79,-99.99,,,0.04,Acu-Link.com,2013-01-18 04:40:00,
2013-01-17 23:55:00,60.8,52.5,29.94,North,0,15.0,-999.0,74,-99.99,,,0.04,Acu-Link.com,2013-01-18 04:55:00,